Maylene, Alabama
Current Conditions -  °F | °C
As of 4:53 AM on Monday 22 Dec 2014 (Local Time) from KEET Reporting Station
Haze Haze  
Wind Chill: 50°   Ceiling: 400
Heat Index: 50°   Visibility: 4mi
Dew Point: 49°   Wind: 5mph
Humidity: 96%   Direction: 110°ESE
Pressure: 29.96"   Gusts: NA
Location:  33.2°N, 86.86°W
Report Text: KEET 221053Z AUTO 11004KT 4SM BR OVC004 10/09 A2996 RMK AO2 SLP145 T01000094
Loading
Personal Weather Stations






























Interactive Weather Map New forecast layout! Learn more

10-Day Weather Forecast

Advertisements
Track Severe Weather on mobile